Impacts METAR Board
IDs:

KMIA - Miami Intl, FL, US

Updated at: 0900 UTC 25 May 2020
Potential Impact None Slight Moderate High
Time 24/21Z 24/22Z 24/23Z 25/00Z 25/01Z 25/02Z 25/03Z 25/04Z 25/05Z 25/06Z 25/07Z 25/08Z 25/09Z
Temp78 77 78 75 77 75 75 76 76 76 77 77 76
Dewpt75 74 74 74 74 73 72 73 73 74 75 75 75
Altim29.93 29.93 29.92 29.91 29.93 29.93 29.93 29.93 29.91 29.89 29.86 29.86 29.86
VIS10 10 10 10 10 8 10 10 7 2 4 6 6
CIG60 55 46 130 28 11 35 15 15 15 15 110 65
CoverOVCOVCOVCOVCOVCOVCOVCOVCOVCOVCOVCOVCOVC
FltCatVFRVFRVFRVFRMVFRMVFRVFRMVFRMVFRIFRMVFRVFRVFR
WX-RA-RA-RA-RA-RA-RA-----RARA BRRA BR-RA BR-RA BR
WDir908080809010080808090110110110
WSpd9 9 10 11 17 16 9 14 12 15 16 10 10
WGst-- -- -- -- 22 25 -- 17 17 -- 22 19 --
Raw hourly METARs
KMIA 242053Z 09009KT 10SM -RA SCT018 BKN060 OVC110 26/24 A2993 RMK AO2 SLP136 P0000 60004 T02560239 56017 $
KMIA 242153Z 08009KT 10SM -RA SCT017 BKN055 OVC100 25/23 A2993 RMK AO2 SLP134 P0009 T02500233 $
KMIA 242253Z 08010KT 10SM -RA SCT020 BKN046 OVC100 26/23 A2992 RMK AO2 RAE01B45 SLP133 P0000 T02560233 $
KMIA 242353Z 08011KT 10SM -RA SCT014 SCT060 BKN130 OVC250 24/23 A2991 RMK AO2 PK WND 11027/2315 SLP130 CB DSNT NW-N MOV NW P0026 60039 T02390233 10256 20233 58006 $
KMIA 250053Z 09017G22KT 10SM -RA SCT017 BKN028 OVC043 25/23 A2993 RMK AO2 RAE06B50 SLP133 P0000 T02500233 $
KMIA 250205Z 10016G25KT 8SM -RA FEW008 BKN011 OVC017 24/23 A2993 RMK AO2 P0000 T02390228 $
KMIA 250253Z 08009KT 10SM FEW014 BKN035 OVC050 24/22 A2993 RMK AO2 RAE30 SLP136 P0000 60002 T02390222 51006 $
KMIA 250403Z 08014G17KT 10SM FEW012 BKN015 OVC021 24/23 A2993 RMK AO2 T02440228 $
KMIA 250453Z 08012G17KT 7SM -RA BKN015 BKN020 OVC050 24/23 A2991 RMK AO2 RAB28 SLP128 P0000 T02440228 402610228 $
KMIA 250553Z 09015KT 2SM RA BR SCT009 BKN015 OVC030 24/23 A2989 RMK AO2 SLP122 P0019 60021 T02440233 10250 20239 58011 $
KMIA 250653Z 11016G22KT 4SM RA BR FEW007 BKN015CB OVC022 25/24 A2986 RMK AO2 LTG DSNT SW SLP113 CB NW MOV NW P0033 T02500239 $
KMIA 250753Z 11010G19KT 6SM -RA BR FEW015 SCT025 OVC110 25/24 A2986 RMK AO2 SLP110 CB MOV NW P0011 T02500239 $
KMIA 250853Z 11010KT 6SM -RA BR FEW012 BKN065 OVC085 24/24 A2986 RMK AO2 SLP111 P0011 60055 T02440239 55011 $



Page loaded:  09:23 UTC  |   02:23 AM Pacific  |   03:23 AM Mountain  |   04:23 AM Central  |   05:23 AM Eastern

 

ADVISORIES

FORECASTS

FORECASTS

OBSERVATIONS

USER TOOLS

ABOUT US